Terminal Aerodrome Forecast
Issued by NWS

Home | Current Version | Previous Version | Graphics & Text | Print | Product List | Glossary On
Versions: 1 2 3 4 5 6 7 8 9 10 11 12 13 14 15 16 17
000
FTUS41 KCLE 210529
TAFFDY
TAF
KFDY 210529Z 2106/2206 10004KT P6SM OVC200
     FM211500 21010KT P6SM OVC045
     FM212200 21008KT P6SM VCSH OVC035
     FM212300 21006KT 5SM -SHRA BR OVC025
     FM220200 VRB03KT 3SM BR VCSH OVC012=

USA.gov is the U.S. government's official web portal to all federal, state and local government web resources and services.